ニジネヴァルトフスク の空港の天気 - METARとTAF

Nizhnevartovsk ( USNN / NJC ) - ロシア ニジネヴァルトフスク
飛行場実況気象(Metar)
観測時間07/16 11:00 YEKT (07/16 06:00 UTC)
風向・風速北北東 3m/s
視程10km以上
天気現象
なし
気温25℃
湿度41%
気圧1018hPa
METARUSNN 160600Z 03003MPS 340V070 CAVOK 25/11 Q1018 R03/0///65 NOSIG RMK QFE759
過去の天気等 Google飛行場航空写真 Wunderground天気予報

過去48時間のMETAR

飛行場予報(TAF)
発表時間: 7/16 10:00 YEKT (7/16 05:00 UTC)
予報対象時間: 16日11時 YEKT ~ 17日11時 YEKT
風向・風速北 3m/s
視程10km以上
なし
TAF USNN 160500Z 1606/1706 01003MPS CAVOK